Star Princess — ZCDD6 — position and weather

sailwx.info

Track history (hours):
 
Tides and Currents Weather Stations Pressure Air Temp Water Temp Dewpoint Dewpoint Depression Visibility Wind Speed Wind Dir Waves Ship Positions

Star Princess

Operator: Princess Cruises

Last reported at 2016-Apr-29 21:33 UTC. Time now 2016-Apr-29 21:34 UTC.
Position N 49°17' W 123°06'.

Length 289.6 m; beam 36 m; draft 8.4 m.

Type: Ship. MMSI: 310361000.

Date/timePositionNaut miles runAvg speedWind from/ knotsBaromVisibWave heightAir tempDewpointWater temp
2016-Apr-29 21:33N 49°17' W 123°06'0 0.0
2016-Apr-29 20:33N 49°17' W 123°06'0 0.0
2016-Apr-29 19:32N 49°17' W 123°06'0 0.0
2016-Apr-29 18:32N 49°17' W 123°06'0 0.0
2016-Apr-29 17:31N 49°17' W 123°06'0 0.0
2016-Apr-29 16:31N 49°17' W 123°06'0 0.0
2016-Apr-29 15:33N 49°17' W 123°06'0 0.0
2016-Apr-29 14:33N 49°17' W 123°06'0 0.4
2016-Apr-29 13:33N 49°18' W 123°06'9 9.0
2016-Apr-29 12:33N 49°14' W 123°19'1111.5
2016-Apr-29 11:34N 49°03' W 123°19'1111.3
2016-Apr-29 10:34N 48°55' W 123°07'10 9.8
2016-Apr-29 09:33N 48°45' W 123°03'1111.0
2016-Apr-29 08:34N 48°37' W 123°13'1312.9
2016-Apr-29 07:33N 48°24' W 123°13'1110.7
2016-Apr-29 06:33N 48°17' W 123°26'1212.1
2016-Apr-29 05:33N 48°13' W 123°43'3913.0
2016-Apr-29 02:31N 48°27' W 124°38'1312.9
2016-Apr-29 01:32N 48°29' W 124°57'1412.8
2016-Apr-29 00:25N 48°16' W 125°08'9113.1
2016-Apr-28 17:27N 46°45' W 125°15'1213.5
2016-Apr-28 16:33N 46°33' W 125°15'1313.4
2016-Apr-28 15:33N 46°20' W 125°14'1413.7
2016-Apr-28 14:33N 46°06' W 125°13'1414.4
2016-Apr-28 13:33N 45°52' W 125°12'1414.1
2016-Apr-28 12:33N 45°38' W 125°11'1413.8
2016-Apr-28 11:31N 45°24' W 125°10'32413.8
2016-Apr-27 12:00N 40°00' W 124°48'8316.6 300 / 331018.0 5.4 1.012.0 9.013.0
2016-Apr-27 07:00N 38°48' W 123°54'1315.1 350 / 101018.010.8 1.011.0 9.010.0
2016-Apr-27 06:07N 38°36' W 123°47'916.7
2016-Apr-27 05:34N 38°29' W 123°39'1615.9
2016-Apr-27 04:33N 38°16' W 123°27'1515.3
2016-Apr-27 03:34N 38°04' W 123°15'1515.4
2016-Apr-27 02:34N 37°54' W 122°60'1615.8
2016-Apr-27 01:33N 37°46' W 122°43'1212.4
2016-Apr-27 00:33N 37°49' W 122°27'2 2.5
2016-Apr-26 23:33N 37°48' W 122°24'0 0.0
2016-Apr-26 22:33N 37°48' W 122°24'0 0.0
2016-Apr-26 21:32N 37°48' W 122°24'0 0.0
2016-Apr-26 20:32N 37°48' W 122°24'0 0.0
2016-Apr-26 19:31N 37°48' W 122°24'0 0.0
2016-Apr-26 18:31N 37°48' W 122°24'0 0.0
2016-Apr-26 17:33N 37°48' W 122°24'0 0.0
2016-Apr-26 16:33N 37°48' W 122°24'0 0.0
2016-Apr-26 15:30N 37°48' W 122°24'0 0.0
2016-Apr-26 14:32N 37°48' W 122°24'0 0.0
2016-Apr-26 13:32N 37°48' W 122°24'0 0.0
2016-Apr-26 12:31N 37°48' W 122°24'0 0.0
2016-Apr-26 11:31N 37°48' W 122°24'0 0.0
2016-Apr-26 10:33N 37°48' W 122°24'0 0.0
2016-Apr-26 09:33N 37°48' W 122°24'0 0.0
2016-Apr-26 08:30N 37°48' W 122°24'0 0.0
2016-Apr-26 07:32N 37°48' W 122°24'0 0.0
2016-Apr-26 06:29N 37°48' W 122°24'0 0.0
2016-Apr-26 05:28N 37°48' W 122°24'0 0.0
2016-Apr-26 04:28N 37°48' W 122°24'0 0.0
2016-Apr-26 03:34N 37°48' W 122°24'0 0.0
2016-Apr-26 02:33N 37°48' W 122°24'0 0.0
2016-Apr-26 01:33N 37°48' W 122°24'0 0.0
2016-Apr-26 00:32N 37°48' W 122°24'0 0.0
2016-Apr-25 23:32N 37°48' W 122°24'0 0.0
2016-Apr-25 22:34N 37°48' W 122°24'6 6.2
2016-Apr-25 21:34N 37°47' W 122°32'1010.4
2016-Apr-25 20:33N 37°39' W 122°40'1313.1
2016-Apr-25 19:33N 37°26' W 122°40'1212.3
2016-Apr-25 18:33N 37°14' W 122°42'1211.5
2016-Apr-25 17:32N 37°03' W 122°48'1913.1
2016-Apr-25 16:07N 36°44' W 122°49'1012.4
2016-Apr-25 15:20N 36°35' W 122°47'4214.5
2016-Apr-25 12:25N 35°59' W 122°20'1314.7
2016-Apr-25 11:33N 35°49' W 122°10'1615.6
2016-Apr-25 10:33N 35°36' W 121°58'1526.4
2016-Apr-25 10:00N 35°24' W 121°48'3 5.8 320 / 491015.810.8 4.515.813.515.0
2016-Apr-25 09:27N 35°22' W 121°45'152 6.3
2016-Apr-24 09:20N 33°52' W 119°16'1013.1
2016-Apr-24 08:32N 33°44' W 119°25'12 8.5
2016-Apr-24 07:10N 33°41' W 119°11'3810.4
2016-Apr-24 03:31N 33°18' W 118°35'1111.4
2016-Apr-24 02:33N 33°14' W 118°23'9 9.3
2016-Apr-24 01:33N 33°18' W 118°13'5 0.4
2016-Apr-23 13:27N 33°21' W 118°18'2211.3
2016-Apr-23 11:32N 33°02' W 118°05'7 7.2
2016-Apr-23 10:33N 33°01' W 117°57'1211.7
2016-Apr-23 09:33N 33°12' W 118°02'1211.6
2016-Apr-23 08:32N 33°23' W 118°08'1211.6
2016-Apr-23 07:32N 33°33' W 118°13'12 1.3
2016-Apr-22 22:16N 33°45' W 118°17'13 1.2
2016-Apr-22 11:12N 33°41' W 118°32'812.0
2016-Apr-22 10:29N 33°46' W 118°41'14417.0
2016-Apr-22 02:00N 34°48' W 121°18'1738.0 280 / 71013.010.8 0.515.513.717.0
2016-Apr-22 01:33N 35°02' W 121°28'2020.4
2016-Apr-22 00:33N 35°19' W 121°43'2120.5
2016-Apr-21 23:32N 35°35' W 121°59'2020.9
2016-Apr-21 22:33N 35°52' W 122°14'2221.8
2016-Apr-21 21:33N 36°09' W 122°31'2120.9
2016-Apr-21 20:33N 36°26' W 122°45'6120.2
2016-Apr-21 17:33N 37°21' W 123°18'2020.5
2016-Apr-21 16:33N 37°40' W 123°28'2020.3
2016-Apr-21 15:33N 37°58' W 123°39'1424.8
2016-Apr-21 15:00N 38°12' W 123°42'717.1 150 / 111012.2 0.5 0.514.013.115.0
2016-Apr-21 14:33N 38°18' W 123°48'2120.9
2016-Apr-21 13:33N 38°38' W 123°57'26120.0
2016-Apr-21 00:32N 42°54' W 124°57'6220.6
2016-Apr-20 21:33N 43°56' W 125°02'2120.5
2016-Apr-20 20:33N 44°16' W 125°03'2120.2
2016-Apr-20 19:31N 44°37' W 125°05'2020.2
2016-Apr-20 18:33N 44°56' W 125°06'2 4.4
2016-Apr-20 18:00N 44°54' W 125°06'2352.5 190 / 51013.710.8 0.511.0 9.013.0
2016-Apr-20 17:33N 45°17' W 125°08'2020.4
2016-Apr-20 16:33N 45°37' W 125°09'2120.6
2016-Apr-20 15:33N 45°58' W 125°11'2120.5
2016-Apr-20 14:33N 46°18' W 125°14'2120.6
2016-Apr-20 13:33N 46°39' W 125°14'2120.6
2016-Apr-20 12:34N 46°59' W 125°16'2120.4
2016-Apr-20 11:33N 47°20' W 125°17'2020.4
2016-Apr-20 10:33N 47°40' W 125°19'2020.2
2016-Apr-20 09:33N 48°00' W 125°17'2020.3
2016-Apr-20 08:33N 48°20' W 125°10'1717.3
2016-Apr-20 07:33N 48°31' W 124°50'2120.2
2016-Apr-20 06:31N 48°24' W 124°20'2020.5
2016-Apr-20 05:33N 48°17' W 123°52'1717.3
2016-Apr-20 04:34N 48°20' W 123°26'1413.7
2016-Apr-20 03:33N 48°30' W 123°12'1616.2
2016-Apr-20 02:33N 48°45' W 123°05'1515.3
2016-Apr-20 01:33N 48°59' W 123°17'1818.4
2016-Apr-20 00:33N 49°17' W 123°19'8 7.6
2016-Apr-19 23:28N 49°17' W 123°06'0 0.0
2016-Apr-19 22:33N 49°17' W 123°06'  
Track history (hours):
 
Tides and Currents Weather Stations Pressure Air Temp Water Temp Dewpoint Dewpoint Depression Visibility Wind Speed Wind Dir Waves Ship Positions

Star Princess

Operator: Princess Cruises

Last reported at 2016-Apr-29 21:33 UTC. Time now 2016-Apr-29 21:34 UTC.
Position N 49°17' W 123°06'.

Length 289.6 m; beam 36 m; draft 8.4 m.

Type: Ship. MMSI: 310361000.

Date/timePositionNaut miles runAvg speedWind from/ knotsBaromVisibWave heightAir tempDewpointWater temp
2016-Apr-29 21:33N 49°17' W 123°06'0 0.0
2016-Apr-29 20:33N 49°17' W 123°06'0 0.0
2016-Apr-29 19:32N 49°17' W 123°06'0 0.0
2016-Apr-29 18:32N 49°17' W 123°06'0 0.0
2016-Apr-29 17:31N 49°17' W 123°06'0 0.0
2016-Apr-29 16:31N 49°17' W 123°06'0 0.0
2016-Apr-29 15:33N 49°17' W 123°06'0 0.0
2016-Apr-29 14:33N 49°17' W 123°06'0 0.4
2016-Apr-29 13:33N 49°18' W 123°06'9 9.0
2016-Apr-29 12:33N 49°14' W 123°19'1111.5
2016-Apr-29 11:34N 49°03' W 123°19'1111.3
2016-Apr-29 10:34N 48°55' W 123°07'10 9.8
2016-Apr-29 09:33N 48°45' W 123°03'1111.0
2016-Apr-29 08:34N 48°37' W 123°13'1312.9
2016-Apr-29 07:33N 48°24' W 123°13'1110.7
2016-Apr-29 06:33N 48°17' W 123°26'1212.1
2016-Apr-29 05:33N 48°13' W 123°43'3913.0
2016-Apr-29 02:31N 48°27' W 124°38'1312.9
2016-Apr-29 01:32N 48°29' W 124°57'1412.8
2016-Apr-29 00:25N 48°16' W 125°08'9113.1
2016-Apr-28 17:27N 46°45' W 125°15'1213.5
2016-Apr-28 16:33N 46°33' W 125°15'1313.4
2016-Apr-28 15:33N 46°20' W 125°14'1413.7
2016-Apr-28 14:33N 46°06' W 125°13'1414.4
2016-Apr-28 13:33N 45°52' W 125°12'1414.1
2016-Apr-28 12:33N 45°38' W 125°11'1413.8
2016-Apr-28 11:31N 45°24' W 125°10'32413.8
2016-Apr-27 12:00N 40°00' W 124°48'8316.6 300 / 331018.0 5.4 1.012.0 9.013.0
2016-Apr-27 07:00N 38°48' W 123°54'1315.1 350 / 101018.010.8 1.011.0 9.010.0
2016-Apr-27 06:07N 38°36' W 123°47'916.7
2016-Apr-27 05:34N 38°29' W 123°39'1615.9
2016-Apr-27 04:33N 38°16' W 123°27'1515.3
2016-Apr-27 03:34N 38°04' W 123°15'1515.4
2016-Apr-27 02:34N 37°54' W 122°60'1615.8
2016-Apr-27 01:33N 37°46' W 122°43'1212.4
2016-Apr-27 00:33N 37°49' W 122°27'2 2.5
2016-Apr-26 23:33N 37°48' W 122°24'0 0.0
2016-Apr-26 22:33N 37°48' W 122°24'0 0.0
2016-Apr-26 21:32N 37°48' W 122°24'0 0.0
2016-Apr-26 20:32N 37°48' W 122°24'0 0.0
2016-Apr-26 19:31N 37°48' W 122°24'0 0.0
2016-Apr-26 18:31N 37°48' W 122°24'0 0.0
2016-Apr-26 17:33N 37°48' W 122°24'0 0.0
2016-Apr-26 16:33N 37°48' W 122°24'0 0.0
2016-Apr-26 15:30N 37°48' W 122°24'0 0.0
2016-Apr-26 14:32N 37°48' W 122°24'0 0.0
2016-Apr-26 13:32N 37°48' W 122°24'0 0.0
2016-Apr-26 12:31N 37°48' W 122°24'0 0.0
2016-Apr-26 11:31N 37°48' W 122°24'0 0.0
2016-Apr-26 10:33N 37°48' W 122°24'0 0.0
2016-Apr-26 09:33N 37°48' W 122°24'0 0.0
2016-Apr-26 08:30N 37°48' W 122°24'0 0.0
2016-Apr-26 07:32N 37°48' W 122°24'0 0.0
2016-Apr-26 06:29N 37°48' W 122°24'0 0.0
2016-Apr-26 05:28N 37°48' W 122°24'0 0.0
2016-Apr-26 04:28N 37°48' W 122°24'0 0.0
2016-Apr-26 03:34N 37°48' W 122°24'0 0.0
2016-Apr-26 02:33N 37°48' W 122°24'0 0.0
2016-Apr-26 01:33N 37°48' W 122°24'0 0.0
2016-Apr-26 00:32N 37°48' W 122°24'0 0.0
2016-Apr-25 23:32N 37°48' W 122°24'0 0.0
2016-Apr-25 22:34N 37°48' W 122°24'6 6.2
2016-Apr-25 21:34N 37°47' W 122°32'1010.4
2016-Apr-25 20:33N 37°39' W 122°40'1313.1
2016-Apr-25 19:33N 37°26' W 122°40'1212.3
2016-Apr-25 18:33N 37°14' W 122°42'1211.5
2016-Apr-25 17:32N 37°03' W 122°48'1913.1
2016-Apr-25 16:07N 36°44' W 122°49'1012.4
2016-Apr-25 15:20N 36°35' W 122°47'4214.5
2016-Apr-25 12:25N 35°59' W 122°20'1314.7
2016-Apr-25 11:33N 35°49' W 122°10'1615.6
2016-Apr-25 10:33N 35°36' W 121°58'1526.4
2016-Apr-25 10:00N 35°24' W 121°48'3 5.8 320 / 491015.810.8 4.515.813.515.0
2016-Apr-25 09:27N 35°22' W 121°45'152 6.3
2016-Apr-24 09:20N 33°52' W 119°16'1013.1
2016-Apr-24 08:32N 33°44' W 119°25'12 8.5
2016-Apr-24 07:10N 33°41' W 119°11'3810.4
2016-Apr-24 03:31N 33°18' W 118°35'1111.4
2016-Apr-24 02:33N 33°14' W 118°23'9 9.3
2016-Apr-24 01:33N 33°18' W 118°13'5 0.4
2016-Apr-23 13:27N 33°21' W 118°18'2211.3
2016-Apr-23 11:32N 33°02' W 118°05'7 7.2
2016-Apr-23 10:33N 33°01' W 117°57'1211.7
2016-Apr-23 09:33N 33°12' W 118°02'1211.6
2016-Apr-23 08:32N 33°23' W 118°08'1211.6
2016-Apr-23 07:32N 33°33' W 118°13'12 1.3
2016-Apr-22 22:16N 33°45' W 118°17'13 1.2
2016-Apr-22 11:12N 33°41' W 118°32'812.0
2016-Apr-22 10:29N 33°46' W 118°41'14417.0
2016-Apr-22 02:00N 34°48' W 121°18'1738.0 280 / 71013.010.8 0.515.513.717.0
2016-Apr-22 01:33N 35°02' W 121°28'2020.4
2016-Apr-22 00:33N 35°19' W 121°43'2120.5
2016-Apr-21 23:32N 35°35' W 121°59'2020.9
2016-Apr-21 22:33N 35°52' W 122°14'2221.8
2016-Apr-21 21:33N 36°09' W 122°31'2120.9
2016-Apr-21 20:33N 36°26' W 122°45'6120.2
2016-Apr-21 17:33N 37°21' W 123°18'2020.5
2016-Apr-21 16:33N 37°40' W 123°28'2020.3
2016-Apr-21 15:33N 37°58' W 123°39'1424.8
2016-Apr-21 15:00N 38°12' W 123°42'717.1 150 / 111012.2 0.5 0.514.013.115.0
2016-Apr-21 14:33N 38°18' W 123°48'2120.9
2016-Apr-21 13:33N 38°38' W 123°57'26120.0
2016-Apr-21 00:32N 42°54' W 124°57'6220.6
2016-Apr-20 21:33N 43°56' W 125°02'2120.5
2016-Apr-20 20:33N 44°16' W 125°03'2120.2
2016-Apr-20 19:31N 44°37' W 125°05'2020.2
2016-Apr-20 18:33N 44°56' W 125°06'2 4.4
2016-Apr-20 18:00N 44°54' W 125°06'2352.5 190 / 51013.710.8 0.511.0 9.013.0
2016-Apr-20 17:33N 45°17' W 125°08'2020.4
2016-Apr-20 16:33N 45°37' W 125°09'2120.6
2016-Apr-20 15:33N 45°58' W 125°11'2120.5
2016-Apr-20 14:33N 46°18' W 125°14'2120.6
2016-Apr-20 13:33N 46°39' W 125°14'2120.6
2016-Apr-20 12:34N 46°59' W 125°16'2120.4
2016-Apr-20 11:33N 47°20' W 125°17'2020.4
2016-Apr-20 10:33N 47°40' W 125°19'2020.2
2016-Apr-20 09:33N 48°00' W 125°17'2020.3
2016-Apr-20 08:33N 48°20' W 125°10'1717.3
2016-Apr-20 07:33N 48°31' W 124°50'2120.2
2016-Apr-20 06:31N 48°24' W 124°20'2020.5
2016-Apr-20 05:33N 48°17' W 123°52'1717.3
2016-Apr-20 04:34N 48°20' W 123°26'1413.7
2016-Apr-20 03:33N 48°30' W 123°12'1616.2
2016-Apr-20 02:33N 48°45' W 123°05'1515.3
2016-Apr-20 01:33N 48°59' W 123°17'1818.4
2016-Apr-20 00:33N 49°17' W 123°19'8 7.6
2016-Apr-19 23:28N 49°17' W 123°06'0 0.0
2016-Apr-19 22:33N 49°17' W 123°06'  

Dump ship's entire track history